createdAt,value
2019-05-05T00:02:22.337Z,100849.28
2019-05-05T00:05:46.780Z,100854.37
2019-05-05T00:09:07.743Z,100859.98
2019-05-05T00:12:42.131Z,100860.38
2019-05-05T00:16:31.960Z,100862.59
2019-05-05T00:19:39.311Z,100864.43
2019-05-05T00:22:46.787Z,100861.92
2019-05-05T00:25:52.604Z,100869.61
2019-05-05T00:29:12.073Z,100866.23
2019-05-05T00:32:17.845Z,100867.97
2019-05-05T00:35:34.677Z,100869.67
2019-05-05T00:38:51.394Z,100866.78
2019-05-05T00:42:09.143Z,100876.57
2019-05-05T00:45:26.396Z,100877.47
2019-05-05T00:48:41.346Z,100882.62
2019-05-05T00:51:57.975Z,100876.33
2019-05-05T00:55:15.209Z,100873.38
2019-05-05T00:58:24.655Z,100886.59
2019-05-05T01:01:49.712Z,100883.27
2019-05-05T01:05:04.548Z,100888.77
2019-05-05T01:08:16.245Z,100892.14
2019-05-05T01:11:25.122Z,100890.55
2019-05-05T01:14:34.271Z,100891.89
2019-05-05T01:17:41.721Z,100891.05
2019-05-05T01:20:58.603Z,100889.86
2019-05-05T01:24:05.879Z,100895.84
2019-05-05T01:27:22.861Z,100897.06
2019-05-05T01:30:41.530Z,100907.66
2019-05-05T01:34:08.792Z,100909.00
2019-05-05T01:37:27.670Z,100910.27
2019-05-05T01:41:11.364Z,100907.33
2019-05-05T01:44:35.292Z,100905.70
2019-05-05T01:47:42.751Z,100909.98
2019-05-05T01:50:50.117Z,100914.59
2019-05-05T01:53:57.484Z,100915.09
2019-05-05T01:57:05.584Z,100921.42
2019-05-05T02:00:14.821Z,100919.75
2019-05-05T02:03:24.244Z,100923.19
2019-05-05T02:06:31.411Z,100921.90
2019-05-05T02:09:37.218Z,100919.85
2019-05-05T02:12:44.737Z,100917.76
2019-05-05T02:15:52.165Z,100923.70
2019-05-05T02:18:59.665Z,100919.48
2019-05-05T02:22:07.082Z,100924.59
2019-05-05T02:25:14.605Z,100923.73
2019-05-05T02:28:24.127Z,100923.31
2019-05-05T02:31:41.761Z,100920.41
2019-05-05T02:34:56.303Z,100920.86
2019-05-05T02:38:01.228Z,100925.09
2019-05-05T02:41:08.709Z,100922.56
2019-05-05T02:44:15.605Z,100919.22
2019-05-05T02:47:55.057Z,100920.89
2019-05-05T02:51:16.722Z,100921.31
2019-05-05T02:54:36.498Z,100924.72
2019-05-05T02:57:44.020Z,100925.59
2019-05-05T03:01:04.953Z,100928.53
2019-05-05T03:04:29.523Z,100926.88
2019-05-05T03:07:46.121Z,100928.98
2019-05-05T03:11:09.050Z,100930.23
2019-05-05T03:14:18.120Z,100930.70
2019-05-05T03:17:25.761Z,100931.58
2019-05-05T03:20:34.355Z,100939.58
2019-05-05T03:23:44.025Z,100938.75
2019-05-05T03:26:49.406Z,100950.11
2019-05-05T03:29:55.814Z,100944.65
2019-05-05T03:33:05.386Z,100945.92
2019-05-05T03:36:10.835Z,100951.83
2019-05-05T03:39:24.048Z,100946.34
2019-05-05T03:42:44.318Z,100953.51
2019-05-05T03:45:57.239Z,100963.63
2019-05-05T03:49:04.952Z,100964.48
2019-05-05T03:52:13.885Z,100963.64
2019-05-05T03:55:21.345Z,100968.70
2019-05-05T03:58:28.895Z,100975.01
2019-05-05T04:01:38.763Z,100980.06
2019-05-05T04:04:48.904Z,100979.66
2019-05-05T04:07:56.376Z,100979.66
2019-05-05T04:11:04.019Z,100976.28
2019-05-05T04:14:11.583Z,100983.88
2019-05-05T04:17:44.289Z,100994.81
2019-05-05T04:20:53.363Z,100996.50
2019-05-05T04:24:09.608Z,100992.70
2019-05-05T04:27:16.912Z,100995.23
2019-05-05T04:30:33.979Z,100996.89
2019-05-05T04:33:41.458Z,101008.70
2019-05-05T04:36:48.810Z,101007.44
2019-05-05T04:39:55.032Z,101008.28
2019-05-05T04:43:03.888Z,101007.02
2019-05-05T04:46:20.901Z,101009.95
2019-05-05T04:49:33.956Z,101012.89
2019-05-05T04:52:43.323Z,101014.56
2019-05-05T04:55:50.542Z,101015.44
2019-05-05T04:59:07.745Z,101014.57
2019-05-05T05:02:43.663Z,101020.90
2019-05-05T05:06:17.540Z,101027.63
2019-05-05T05:09:25.195Z,101025.52
2019-05-05T05:12:43.582Z,101029.73
2019-05-05T05:16:00.234Z,101028.47
2019-05-05T05:19:17.255Z,101038.13
2019-05-05T05:22:39.984Z,101044.03
2019-05-05T05:25:46.335Z,101051.60
2019-05-05T05:28:53.884Z,101050.73
2019-05-05T05:32:01.256Z,101055.80
2019-05-05T05:35:08.752Z,101064.20
2019-05-05T05:38:16.031Z,101063.33
2019-05-05T05:41:46.147Z,101061.20
2019-05-05T05:45:15.716Z,101064.98
2019-05-05T05:48:36.301Z,101068.73
2019-05-05T05:51:44.711Z,101072.09
2019-05-05T05:54:53.535Z,101079.59
2019-05-05T05:58:00.988Z,101087.59
2019-05-05T06:01:08.456Z,101085.44
2019-05-05T06:04:14.744Z,101085.78
2019-05-05T06:07:21.027Z,101088.67
2019-05-05T06:10:28.364Z,101091.53
2019-05-05T06:13:35.871Z,101101.13
2019-05-05T06:16:44.672Z,101095.91
2019-05-05T06:20:03.907Z,101099.47
2019-05-05T06:23:20.061Z,101097.61
2019-05-05T06:26:36.854Z,101095.22
2019-05-05T06:29:54.290Z,101097.91
2019-05-05T06:33:01.887Z,101104.08
2019-05-05T06:36:09.240Z,101111.45
2019-05-05T06:39:16.435Z,101118.48
2019-05-05T06:42:40.511Z,101115.27
2019-05-05T06:45:53.568Z,101118.37
2019-05-05T06:49:17.701Z,101120.55
2019-05-05T06:52:25.192Z,101124.43
2019-05-05T06:55:34.046Z,101125.80
2019-05-05T06:58:41.632Z,101124.72
2019-05-05T07:01:49.111Z,101133.77
2019-05-05T07:05:05.862Z,101135.41
2019-05-05T07:08:24.375Z,101138.36
2019-05-05T07:11:41.134Z,101134.58
2019-05-05T07:14:58.411Z,101138.53
2019-05-05T07:18:05.227Z,101141.24
2019-05-05T07:21:23.668Z,101144.75
2019-05-05T07:24:40.618Z,101148.09
2019-05-05T07:27:57.375Z,101148.80
2019-05-05T07:31:14.487Z,101148.77
2019-05-05T07:34:24.124Z,101147.31
2019-05-05T07:37:31.217Z,101149.00
2019-05-05T07:40:38.592Z,101152.46
2019-05-05T07:43:44.285Z,101151.58
2019-05-05T07:46:51.663Z,101148.64
2019-05-05T07:49:58.881Z,101147.84
2019-05-05T07:53:17.969Z,101143.49
2019-05-05T07:56:37.105Z,101152.69
2019-05-05T07:59:45.047Z,101154.37
2019-05-05T08:02:54.352Z,101150.05
2019-05-05T08:06:03.808Z,101160.39
2019-05-05T08:09:10.504Z,101161.59
2019-05-05T08:12:17.874Z,101160.36
2019-05-05T08:15:34.964Z,101158.06
2019-05-05T08:18:59.116Z,101160.83
2019-05-05T08:22:06.488Z,101169.66
2019-05-05T08:25:36.365Z,101168.65
2019-05-05T08:29:04.644Z,101166.39
2019-05-05T08:32:35.466Z,101168.36
2019-05-05T08:35:54.977Z,101167.73
2019-05-05T08:39:03.756Z,101173.03
2019-05-05T08:42:24.714Z,101171.33
2019-05-05T08:45:44.217Z,101172.77
2019-05-05T08:49:04.419Z,101172.20
2019-05-05T08:52:31.322Z,101170.24
2019-05-05T08:55:48.229Z,101168.98
2019-05-05T08:59:05.078Z,101167.92
2019-05-05T09:02:23.850Z,101160.11
2019-05-05T09:05:40.140Z,101158.02
2019-05-05T09:08:57.136Z,101152.76
2019-05-05T09:12:14.170Z,101157.97
2019-05-05T09:15:20.019Z,101162.72
2019-05-05T09:18:27.517Z,101169.59
2019-05-05T09:21:54.162Z,101162.81
2019-05-05T09:25:06.389Z,101157.56
2019-05-05T09:28:49.300Z,101157.23
2019-05-05T09:31:56.821Z,101161.25
2019-05-05T09:35:04.848Z,101160.80
2019-05-05T09:38:23.758Z,101159.17
2019-05-05T09:41:40.221Z,101151.48
2019-05-05T09:44:58.467Z,101147.32
2019-05-05T09:48:15.260Z,101151.64
2019-05-05T09:51:24.172Z,101154.31
2019-05-05T09:54:40.941Z,101152.65
2019-05-05T09:57:57.906Z,101151.81
2019-05-05T10:01:14.632Z,101145.67
2019-05-05T10:04:32.342Z,101148.33
2019-05-05T10:07:40.100Z,101149.47
2019-05-05T10:10:57.943Z,101148.48
2019-05-05T10:14:14.830Z,101147.73
2019-05-05T10:17:20.649Z,101157.34
2019-05-05T10:20:37.197Z,101161.98
2019-05-05T10:23:45.584Z,101167.89
2019-05-05T10:26:54.307Z,101175.68
2019-05-05T10:30:04.035Z,101179.41
2019-05-05T10:33:20.466Z,101183.88
2019-05-05T10:36:45.148Z,101189.17
2019-05-05T10:40:03.651Z,101177.86
2019-05-05T10:43:11.264Z,101183.16
2019-05-05T10:46:18.671Z,101178.80
2019-05-05T10:49:26.050Z,101183.44
2019-05-05T10:52:33.808Z,101183.81
2019-05-05T10:55:40.059Z,101180.41
2019-05-05T10:58:47.574Z,101180.47
2019-05-05T11:01:55.036Z,101184.58
2019-05-05T11:05:04.063Z,101180.77
2019-05-05T11:08:13.476Z,101172.57
2019-05-05T11:11:29.863Z,101187.05
2019-05-05T11:14:48.745Z,101179.91
2019-05-05T11:17:55.243Z,101184.70
2019-05-05T11:21:03.988Z,101179.41
2019-05-05T11:24:11.652Z,101183.95
2019-05-05T11:27:19.224Z,101178.77
2019-05-05T11:30:38.192Z,101175.75
2019-05-05T11:34:00.309Z,101179.84
2019-05-05T11:37:13.789Z,101166.44
2019-05-05T11:40:31.691Z,101164.48
2019-05-05T11:43:39.099Z,101168.72
2019-05-05T11:46:46.570Z,101174.63
2019-05-05T11:49:56.610Z,101176.46
2019-05-05T11:53:03.918Z,101180.05
2019-05-05T11:56:11.807Z,101176.56
2019-05-05T11:59:19.475Z,101177.94
2019-05-05T12:02:35.865Z,101178.72
2019-05-05T12:05:44.265Z,101177.89
2019-05-05T12:08:51.703Z,101183.97
2019-05-05T12:11:59.205Z,101183.27
2019-05-05T12:15:16.003Z,101176.90
2019-05-05T12:18:34.281Z,101180.02
2019-05-05T12:21:51.126Z,101180.77
2019-05-05T12:25:28.585Z,101173.73
2019-05-05T12:28:58.864Z,101179.85
2019-05-05T12:32:06.263Z,101175.77
2019-05-05T12:35:14.816Z,101170.16
2019-05-05T12:38:24.141Z,101172.12
2019-05-05T12:41:41.250Z,101166.74
2019-05-05T12:44:56.689Z,101170.61
2019-05-05T12:48:26.996Z,101168.62
2019-05-05T12:51:34.512Z,101170.53
2019-05-05T12:54:43.930Z,101165.13
2019-05-05T12:57:50.915Z,101171.95
2019-05-05T13:01:08.755Z,101174.69
2019-05-05T13:04:16.139Z,101174.52
2019-05-05T13:07:24.274Z,101162.92
2019-05-05T13:10:33.698Z,101160.25
2019-05-05T13:13:41.139Z,101169.55
2019-05-05T13:16:53.000Z,101173.42
2019-05-05T13:20:03.202Z,101163.84
2019-05-05T13:23:38.546Z,101175.98
2019-05-05T13:26:54.083Z,101157.55
2019-05-05T13:30:01.457Z,101158.38
2019-05-05T13:33:09.315Z,101156.64
2019-05-05T13:36:16.746Z,101151.65
2019-05-05T13:39:24.489Z,101162.73
2019-05-05T13:42:40.784Z,101164.35
2019-05-05T13:46:03.436Z,101168.29
2019-05-05T13:49:35.075Z,101161.67
2019-05-05T13:52:40.931Z,101172.06
2019-05-05T13:56:08.757Z,101165.50
2019-05-05T13:59:15.867Z,101165.62
2019-05-05T14:02:33.466Z,101163.27
2019-05-05T14:05:41.206Z,101172.22
2019-05-05T14:08:48.505Z,101172.59
2019-05-05T14:11:55.933Z,101171.02
2019-05-05T14:15:03.946Z,101181.42
2019-05-05T14:18:10.313Z,101181.56
2019-05-05T14:21:27.282Z,101178.23
2019-05-05T14:24:50.881Z,101187.69
2019-05-05T14:27:58.180Z,101182.09
2019-05-05T14:31:14.122Z,101179.81
2019-05-05T14:34:27.843Z,101180.81
2019-05-05T14:37:38.814Z,101176.83
2019-05-05T14:40:46.259Z,101174.99
2019-05-05T14:43:56.347Z,101179.91
2019-05-05T14:47:01.803Z,101180.45
2019-05-05T14:50:08.365Z,101178.16
2019-05-05T14:53:14.569Z,101175.36
2019-05-05T14:56:36.381Z,101173.45
2019-05-05T14:59:49.711Z,101172.33
2019-05-05T15:03:09.995Z,101185.91
2019-05-05T15:06:28.331Z,101187.90
2019-05-05T15:09:46.282Z,101193.86
2019-05-05T15:12:56.671Z,101192.82
2019-05-05T15:16:14.030Z,101184.39
2019-05-05T15:19:30.634Z,101191.83
2019-05-05T15:22:47.472Z,101196.63
2019-05-05T15:26:04.608Z,101199.95
2019-05-05T15:29:21.153Z,101193.30
2019-05-05T15:32:37.837Z,101195.09
2019-05-05T15:35:54.820Z,101203.14
2019-05-05T15:39:13.779Z,101203.50
2019-05-05T15:42:35.973Z,101200.03
2019-05-05T15:45:53.982Z,101199.32
2019-05-05T15:49:01.454Z,101199.09
2019-05-05T15:52:08.936Z,101202.05
2019-05-05T15:55:15.899Z,101205.84
2019-05-05T15:58:23.665Z,101208.95
2019-05-05T16:01:31.013Z,101210.05
2019-05-05T16:04:38.416Z,101206.42
2019-05-05T16:07:45.211Z,101206.25
2019-05-05T16:10:54.645Z,101206.48
2019-05-05T16:14:03.796Z,101204.96
2019-05-05T16:17:27.070Z,101214.70
2019-05-05T16:20:37.702Z,101217.99
2019-05-05T16:23:47.799Z,101224.42
2019-05-05T16:26:55.557Z,101227.71
2019-05-05T16:30:05.486Z,101224.38
2019-05-05T16:33:13.742Z,101221.57
2019-05-05T16:36:21.397Z,101219.18
2019-05-05T16:39:28.278Z,101218.34
2019-05-05T16:42:34.480Z,101218.89
2019-05-05T16:45:51.247Z,101222.59
2019-05-05T16:49:08.070Z,101219.67
2019-05-05T16:52:35.213Z,101218.22
2019-05-05T16:55:46.316Z,101218.98
2019-05-05T16:58:53.587Z,101213.60
2019-05-05T17:02:00.939Z,101220.94
2019-05-05T17:05:07.330Z,101216.42
2019-05-05T17:08:14.516Z,101218.61
2019-05-05T17:11:21.772Z,101216.70
2019-05-05T17:14:50.676Z,101228.72
2019-05-05T17:18:33.061Z,101227.81
2019-05-05T17:21:39.689Z,101225.09
2019-05-05T17:24:47.027Z,101227.55
2019-05-05T17:27:54.702Z,101226.05
2019-05-05T17:31:02.203Z,101222.42
2019-05-05T17:34:08.510Z,101229.75
2019-05-05T17:37:15.787Z,101220.70
2019-05-05T17:40:35.808Z,101229.80
2019-05-05T17:43:54.211Z,101227.88
2019-05-05T17:47:19.252Z,101224.77
2019-05-05T17:50:45.803Z,101220.59
2019-05-05T17:54:00.567Z,101224.98
2019-05-05T17:57:07.895Z,101231.09
2019-05-05T18:00:15.348Z,101223.02
2019-05-05T18:03:22.727Z,101228.48
2019-05-05T18:06:36.859Z,101226.87
2019-05-05T18:10:28.856Z,101225.55
2019-05-05T18:13:54.302Z,101230.23
2019-05-05T18:17:25.061Z,101220.98
2019-05-05T18:20:41.918Z,101225.16
2019-05-05T18:23:58.753Z,101227.66
2019-05-05T18:27:15.834Z,101226.47
2019-05-05T18:30:24.044Z,101233.45
2019-05-05T18:33:31.418Z,101237.92
2019-05-05T18:36:48.296Z,101227.53
2019-05-05T18:39:55.122Z,101240.75
2019-05-05T18:43:05.751Z,101239.91
2019-05-05T18:46:13.678Z,101245.88
2019-05-05T18:49:21.068Z,101240.55
2019-05-05T18:52:28.482Z,101244.05
2019-05-05T18:55:35.854Z,101248.30
2019-05-05T18:58:44.733Z,101249.73
2019-05-05T19:02:03.690Z,101253.47
2019-05-05T19:05:50.225Z,101253.45
2019-05-05T19:08:58.310Z,101261.41
2019-05-05T19:12:05.621Z,101270.42
2019-05-05T19:15:13.663Z,101271.31
2019-05-05T19:18:20.518Z,101274.92
2019-05-05T19:21:33.996Z,101276.75
2019-05-05T19:24:41.429Z,101275.61
2019-05-05T19:27:48.800Z,101267.80
2019-05-05T19:30:56.858Z,101268.81
2019-05-05T19:34:04.503Z,101269.41
2019-05-05T19:37:13.873Z,101261.98
2019-05-05T19:40:21.173Z,101266.39
2019-05-05T19:43:54.379Z,101268.61
2019-05-05T19:47:19.338Z,101268.79
2019-05-05T19:50:34.349Z,101263.12
2019-05-05T19:53:41.563Z,101265.86
2019-05-05T19:56:48.960Z,101264.80
2019-05-05T19:59:56.150Z,101265.33
2019-05-05T20:03:05.070Z,101269.25
2019-05-05T20:06:14.187Z,101261.33
2019-05-05T20:09:20.934Z,101266.88
2019-05-05T20:12:28.297Z,101264.36
2019-05-05T20:15:41.751Z,101266.16
2019-05-05T20:18:50.365Z,101267.84
2019-05-05T20:21:57.491Z,101268.72
2019-05-05T20:25:05.487Z,101263.25
2019-05-05T20:28:14.527Z,101260.74
2019-05-05T20:31:23.822Z,101265.45
2019-05-05T20:34:59.261Z,101268.97
2019-05-05T20:38:24.060Z,101268.17
2019-05-05T20:41:30.296Z,101270.41
2019-05-05T20:44:38.202Z,101262.92
2019-05-05T20:47:45.589Z,101269.51
2019-05-05T20:50:54.569Z,101268.83
2019-05-05T20:54:01.587Z,101264.59
2019-05-05T20:57:08.993Z,101263.87
2019-05-05T21:00:25.864Z,101262.64
2019-05-05T21:03:42.719Z,101264.43
2019-05-05T21:06:59.360Z,101260.04
2019-05-05T21:10:16.058Z,101257.45
2019-05-05T21:13:34.166Z,101257.56
2019-05-05T21:16:51.177Z,101254.29
2019-05-05T21:20:08.017Z,101256.08
2019-05-05T21:23:35.874Z,101253.23
2019-05-05T21:26:53.364Z,101248.21
2019-05-05T21:30:00.665Z,101250.07
2019-05-05T21:33:08.177Z,101260.73
2019-05-05T21:36:15.749Z,101258.26
2019-05-05T21:39:34.756Z,101254.95
2019-05-05T21:42:50.965Z,101249.52
2019-05-05T21:46:07.872Z,101250.06
2019-05-05T21:49:24.392Z,101250.93
2019-05-05T21:52:56.790Z,101248.02
2019-05-05T21:56:41.472Z,101251.13
2019-05-05T22:00:10.164Z,101238.80
2019-05-05T22:03:23.693Z,101240.70
2019-05-05T22:06:30.996Z,101237.75
2019-05-05T22:09:38.443Z,101233.94
2019-05-05T22:12:45.796Z,101236.14
2019-05-05T22:15:54.586Z,101236.68
2019-05-05T22:19:03.713Z,101236.64
2019-05-05T22:22:23.436Z,101227.80
2019-05-05T22:25:30.893Z,101224.11
2019-05-05T22:28:38.314Z,101233.02
2019-05-05T22:31:45.625Z,101233.98
2019-05-05T22:34:52.575Z,101231.50
2019-05-05T22:38:00.019Z,101229.36
2019-05-05T22:41:07.480Z,101224.77
2019-05-05T22:44:14.946Z,101222.25
2019-05-05T22:47:23.636Z,101213.77
2019-05-05T22:50:31.066Z,101211.22
2019-05-05T22:53:38.437Z,101210.05
2019-05-05T22:56:55.163Z,101209.58
2019-05-05T23:00:26.077Z,101212.19
2019-05-05T23:03:31.392Z,101217.43
2019-05-05T23:06:39.202Z,101209.82
2019-05-05T23:09:46.926Z,101212.83
2019-05-05T23:12:54.449Z,101206.09
2019-05-05T23:16:20.691Z,101195.11
2019-05-05T23:19:29.915Z,101203.67
2019-05-05T23:22:47.360Z,101196.81
2019-05-05T23:25:55.848Z,101196.47
2019-05-05T23:29:03.225Z,101197.28
2019-05-05T23:32:10.766Z,101196.06
2019-05-05T23:35:18.353Z,101196.50
2019-05-05T23:38:35.098Z,101188.00
2019-05-05T23:41:51.580Z,101196.96
2019-05-05T23:45:08.468Z,101201.27
2019-05-05T23:48:14.446Z,101204.30
2019-05-05T23:51:24.062Z,101201.73
2019-05-05T23:54:31.031Z,101197.86
2019-05-05T23:57:38.643Z,101189.06
